Time;durP1;ratioP1;P1;durP2;ratioP2;P2;SDS_P1;SDS_P2;PMS_P1;PMS_P2;Temp;Humidity;BMP_temperature;BMP_pressure;BME280_temperature;BME280_humidity;BME280_pressure;Samples;Min_cycle;Max_cycle;Signal;HPM_P1;HPM_P2
2022/03/17 00:03:14;;;;;;;22.07;18.20;;;;;;;;;;6181772;28;20234;-70
2022/03/17 00:06:36;;;;;;;19.73;16.43;;;;;;;;;;6183910;28;20226;-69
2022/03/17 00:09:57;;;;;;;20.43;18.23;;;;;;;;;;6183091;28;20242;-69
2022/03/17 00:13:19;;;;;;;20.80;18.50;;;;;;;;;;6181939;28;20329;-69
2022/03/17 00:16:40;;;;;;;20.60;18.40;;;;;;;;;;6182985;28;20328;-70
2022/03/17 00:20:02;;;;;;;23.50;20.03;;;;;;;;;;6186988;28;20225;-70
2022/03/17 00:23:24;;;;;;;21.47;19.07;;;;;;;;;;6183054;28;20249;-69
2022/03/17 00:26:45;;;;;;;24.47;20.93;;;;;;;;;;6183415;28;20221;-70
2022/03/17 00:30:07;;;;;;;22.03;19.63;;;;;;;;;;6181579;28;20293;-70
2022/03/17 00:33:28;;;;;;;29.23;22.47;;;;;;;;;;6182128;28;20241;-70
2022/03/17 00:36:49;;;;;;;26.87;21.90;;;;;;;;;;6185031;28;20499;-70
2022/03/17 00:40:13;;;;;;;25.37;20.67;;;;;;;;;;6183323;28;20233;-70
2022/03/17 00:43:34;;;;;;;27.40;23.40;;;;;;;;;;6182335;28;20242;-69
2022/03/17 00:46:55;;;;;;;27.67;22.03;;;;;;;;;;6180234;28;20222;-70
2022/03/17 00:50:16;;;;;;;26.93;23.27;;;;;;;;;;6180283;28;20986;-70
2022/03/17 00:53:36;;;;;;;30.07;24.47;;;;;;;;;;6180793;28;20237;-70
2022/03/17 00:56:58;;;;;;;33.27;27.07;;;;;;;;;;6181394;28;20597;-69
2022/03/17 01:00:20;;;;;;;29.87;25.83;;;;;;;;;;6183468;28;20230;-69
2022/03/17 01:03:41;;;;;;;29.43;23.43;;;;;;;;;;6183390;28;20309;-70
2022/03/17 01:07:02;;;;;;;30.87;26.20;;;;;;;;;;6184791;28;20269;-69
2022/03/17 01:10:24;;;;;;;28.37;24.70;;;;;;;;;;6183585;28;20225;-69
2022/03/17 01:13:46;;;;;;;32.60;26.40;;;;;;;;;;6180612;28;20499;-70
2022/03/17 01:17:07;;;;;;;30.17;26.90;;;;;;;;;;6185028;28;20226;-70
2022/03/17 01:20:29;;;;;;;33.90;28.17;;;;;;;;;;6184330;28;20230;-69
2022/03/17 01:23:50;;;;;;;29.60;25.30;;;;;;;;;;6186290;28;20237;-69
2022/03/17 01:27:11;;;;;;;30.03;26.63;;;;;;;;;;6193088;28;20224;-70
2022/03/17 01:30:35;;;;;;;32.10;28.17;;;;;;;;;;6187668;28;20238;-70
2022/03/17 01:33:55;;;;;;;35.10;29.57;;;;;;;;;;6196841;28;20229;-71
2022/03/17 01:37:16;;;;;;;32.20;27.33;;;;;;;;;;6184818;28;20623;-70
2022/03/17 01:40:38;;;;;;;35.90;30.90;;;;;;;;;;6188522;28;20259;-69
2022/03/17 01:43:59;;;;;;;31.40;26.80;;;;;;;;;;6187733;28;20241;-69
2022/03/17 01:47:31;;;;;;;34.17;30.33;;;;;;;;;;6193337;28;20280;-68
2022/03/17 01:50:53;;;;;;;33.93;29.37;;;;;;;;;;6184406;28;20233;-69
2022/03/17 01:54:14;;;;;;;34.63;30.30;;;;;;;;;;6185160;28;20229;-69
2022/03/17 01:57:34;;;;;;;34.77;30.93;;;;;;;;;;6188529;28;20230;-69
2022/03/17 02:00:55;;;;;;;32.33;28.73;;;;;;;;;;6185601;28;20237;-69
2022/03/17 02:04:17;;;;;;;34.10;30.47;;;;;;;;;;6185261;28;20233;-69
2022/03/17 02:07:39;;;;;;;35.90;30.97;;;;;;;;;;6182203;28;20229;-69
2022/03/17 02:14:47;;;;;;;34.83;30.73;;;;;;;;;;6184669;28;20238;-71
2022/03/17 02:18:08;;;;;;;36.43;32.13;;;;;;;;;;6185376;28;20565;-69
2022/03/17 02:21:35;;;;;;;37.30;33.50;;;;;;;;;;6183963;28;20230;-69
2022/03/17 02:28:36;;;;;;;33.03;29.57;;;;;;;;;;6187603;28;20487;-70
2022/03/17 02:31:57;;;;;;;37.73;32.37;;;;;;;;;;6170370;28;20267;-69
2022/03/17 02:35:20;;;;;;;35.57;31.67;;;;;;;;;;6185498;28;20229;-69
2022/03/17 02:38:42;;;;;;;37.23;33.23;;;;;;;;;;6187780;28;20284;-70
2022/03/17 02:42:05;;;;;;;36.00;31.50;;;;;;;;;;6182655;28;20234;-70
2022/03/17 02:45:26;;;;;;;37.73;33.73;;;;;;;;;;6182051;28;21141;-70
2022/03/17 02:48:48;;;;;;;39.90;34.13;;;;;;;;;;6184486;28;20328;-68
2022/03/17 02:52:08;;;;;;;37.93;33.87;;;;;;;;;;6185845;28;20234;-69
2022/03/17 02:55:29;;;;;;;39.40;35.17;;;;;;;;;;6186597;28;20499;-69
2022/03/17 02:58:51;;;;;;;36.03;32.10;;;;;;;;;;6179619;28;20265;-69
2022/03/17 03:02:13;;;;;;;39.83;34.20;;;;;;;;;;6182884;28;20230;-69
2022/03/17 03:05:35;;;;;;;38.80;34.70;;;;;;;;;;6184354;28;20233;-69
2022/03/17 03:08:55;;;;;;;39.57;35.00;;;;;;;;;;6183429;28;20567;-69
2022/03/17 03:12:16;;;;;;;39.33;35.03;;;;;;;;;;6181673;28;20230;-69
2022/03/17 03:15:39;;;;;;;38.83;34.73;;;;;;;;;;6179480;28;20320;-69
2022/03/17 03:19:00;;;;;;;38.03;33.90;;;;;;;;;;6186073;28;20230;-69
2022/03/17 03:22:21;;;;;;;44.17;35.23;;;;;;;;;;6184467;28;20325;-70
2022/03/17 03:25:42;;;;;;;37.27;33.57;;;;;;;;;;6182149;28;20268;-69
2022/03/17 03:29:04;;;;;;;40.23;36.03;;;;;;;;;;6183431;28;20670;-69
2022/03/17 03:32:27;;;;;;;40.90;35.03;;;;;;;;;;6184976;28;20230;-69
2022/03/17 03:39:26;;;;;;;39.43;35.17;;;;;;;;;;6187709;28;20238;-70
2022/03/17 03:42:47;;;;;;;41.03;36.33;;;;;;;;;;6182724;28;20266;-69
2022/03/17 03:46:08;;;;;;;40.20;35.30;;;;;;;;;;6186095;28;20238;-69
2022/03/17 03:49:30;;;;;;;39.57;35.37;;;;;;;;;;6185883;28;20325;-71
2022/03/17 03:52:51;;;;;;;42.17;37.67;;;;;;;;;;6183630;28;20237;-69
2022/03/17 03:56:13;;;;;;;43.10;38.57;;;;;;;;;;6184932;28;20323;-70
2022/03/17 03:59:34;;;;;;;40.87;36.53;;;;;;;;;;6189281;28;20257;-69
2022/03/17 04:02:57;;;;;;;41.60;37.03;;;;;;;;;;6184442;28;20230;-69
2022/03/17 04:06:20;;;;;;;40.63;36.00;;;;;;;;;;6183751;28;20636;-70
2022/03/17 04:09:42;;;;;;;44.23;38.37;;;;;;;;;;6174100;28;20230;-70
2022/03/17 04:13:03;;;;;;;42.53;37.93;;;;;;;;;;6179017;28;20226;-70
2022/03/17 04:16:24;;;;;;;40.47;36.13;;;;;;;;;;6185943;28;20233;-69
2022/03/17 04:19:45;;;;;;;40.80;36.40;;;;;;;;;;6183588;28;20301;-69
2022/03/17 04:23:06;;;;;;;41.57;36.17;;;;;;;;;;6185466;28;20599;-69
2022/03/17 04:26:28;;;;;;;41.57;36.27;;;;;;;;;;6183536;28;20234;-70
2022/03/17 04:29:48;;;;;;;39.53;35.13;;;;;;;;;;6181694;28;20230;-69
2022/03/17 04:33:09;;;;;;;44.03;39.53;;;;;;;;;;6185904;28;20229;-69
2022/03/17 04:36:31;;;;;;;40.00;35.80;;;;;;;;;;6186886;28;20253;-69
2022/03/17 04:39:53;;;;;;;44.73;40.00;;;;;;;;;;6184894;28;20249;-69
2022/03/17 04:43:17;;;;;;;40.33;36.00;;;;;;;;;;6183088;28;20497;-69
2022/03/17 04:46:38;;;;;;;40.10;35.87;;;;;;;;;;6185551;28;20328;-69
2022/03/17 04:49:58;;;;;;;42.47;37.87;;;;;;;;;;6189788;28;20340;-69
2022/03/17 04:53:29;;;;;;;43.27;38.73;;;;;;;;;;6185825;28;20228;-70
2022/03/17 04:56:52;;;;;;;44.40;39.13;;;;;;;;;;6188164;28;20232;-69
2022/03/17 05:00:14;;;;;;;44.40;39.13;;;;;;;;;;6186350;28;21097;-70
2022/03/17 05:03:36;;;;;;;42.73;38.17;;;;;;;;;;6185801;28;20234;-69
2022/03/17 05:06:56;;;;;;;43.23;36.80;;;;;;;;;;6187097;28;20241;-69
2022/03/17 05:10:17;;;;;;;43.40;37.27;;;;;;;;;;6188068;28;20317;-69
2022/03/17 05:13:40;;;;;;;43.23;38.27;;;;;;;;;;6156378;28;20233;-69
2022/03/17 05:17:00;;;;;;;41.80;37.43;;;;;;;;;;6183548;28;20316;-70
2022/03/17 05:20:22;;;;;;;45.67;40.63;;;;;;;;;;6188433;28;21254;-70
2022/03/17 05:23:43;;;;;;;41.83;37.67;;;;;;;;;;6174866;28;20241;-70
2022/03/17 05:27:04;;;;;;;43.80;39.13;;;;;;;;;;6186707;28;20233;-69
2022/03/17 05:30:27;;;;;;;45.47;40.57;;;;;;;;;;6187516;28;20237;-69
2022/03/17 05:33:48;;;;;;;41.33;37.00;;;;;;;;;;6192919;28;20300;-70
2022/03/17 05:37:08;;;;;;;43.00;38.60;;;;;;;;;;6186707;28;20230;-70
2022/03/17 05:40:29;;;;;;;40.63;36.23;;;;;;;;;;6193898;28;20253;-69
2022/03/17 05:43:50;;;;;;;42.00;37.53;;;;;;;;;;6185895;28;20234;-69
2022/03/17 05:47:12;;;;;;;45.10;40.40;;;;;;;;;;6183573;28;20512;-69
2022/03/17 05:50:38;;;;;;;44.83;38.23;;;;;;;;;;6185483;28;20676;-69
2022/03/17 05:53:59;;;;;;;43.40;38.83;;;;;;;;;;6189581;28;20226;-69
2022/03/17 05:57:19;;;;;;;43.47;38.80;;;;;;;;;;6187160;28;20250;-70
2022/03/17 06:00:40;;;;;;;45.47;39.27;;;;;;;;;;6182984;28;20234;-70
2022/03/17 06:04:02;;;;;;;43.07;38.60;;;;;;;;;;6186694;28;20226;-69
2022/03/17 06:07:23;;;;;;;42.67;38.00;;;;;;;;;;6188369;28;20487;-70
2022/03/17 06:10:44;;;;;;;43.40;38.60;;;;;;;;;;6186116;28;20337;-70
2022/03/17 06:14:06;;;;;;;44.90;40.00;;;;;;;;;;6180924;28;20312;-72
2022/03/17 06:17:37;;;;;;;40.97;36.63;;;;;;;;;;6188190;28;20230;-70
2022/03/17 06:20:59;;;;;;;43.17;38.67;;;;;;;;;;6183460;28;20225;-70
2022/03/17 06:24:19;;;;;;;45.27;40.53;;;;;;;;;;6186465;28;20234;-70
2022/03/17 06:27:41;;;;;;;41.40;37.10;;;;;;;;;;6188565;28;20233;-69
2022/03/17 06:31:02;;;;;;;46.83;41.90;;;;;;;;;;6186071;28;20222;-69
2022/03/17 06:34:23;;;;;;;42.37;37.97;;;;;;;;;;6184154;28;20234;-70
2022/03/17 06:37:45;;;;;;;44.00;39.40;;;;;;;;;;6184111;28;20226;-73
2022/03/17 06:41:06;;;;;;;43.27;38.60;;;;;;;;;;6170514;28;20226;-73
2022/03/17 06:44:27;;;;;;;44.70;39.90;;;;;;;;;;6182414;28;20506;-70
2022/03/17 06:47:48;;;;;;;44.93;40.07;;;;;;;;;;6189475;28;20253;-70
2022/03/17 06:51:09;;;;;;;44.60;40.00;;;;;;;;;;6176032;28;20364;-71
2022/03/17 06:54:31;;;;;;;43.80;39.17;;;;;;;;;;6175430;28;20234;-70
2022/03/17 06:57:53;;;;;;;47.50;41.80;;;;;;;;;;6182620;28;20328;-71
2022/03/17 07:01:13;;;;;;;43.77;39.10;;;;;;;;;;6173831;28;20265;-72
2022/03/17 07:04:34;;;;;;;46.93;41.87;;;;;;;;;;6179160;28;20230;-71
2022/03/17 07:07:55;;;;;;;47.83;42.87;;;;;;;;;;6178693;28;20577;-72
2022/03/17 07:11:20;;;;;;;46.40;41.57;;;;;;;;;;6170777;28;20221;-71
2022/03/17 07:14:41;;;;;;;47.07;42.00;;;;;;;;;;6159580;28;20785;-71
2022/03/17 07:18:01;;;;;;;47.00;42.07;;;;;;;;;;6184331;28;20260;-71
2022/03/17 07:21:22;;;;;;;48.03;43.00;;;;;;;;;;6180951;28;20250;-72
2022/03/17 07:24:43;;;;;;;46.67;41.40;;;;;;;;;;6180114;28;20241;-72
2022/03/17 07:28:06;;;;;;;44.17;39.53;;;;;;;;;;6171303;28;20562;-69
2022/03/17 07:31:27;;;;;;;44.97;40.03;;;;;;;;;;6178393;28;20337;-73
2022/03/17 07:34:49;;;;;;;47.40;42.63;;;;;;;;;;6180840;28;20242;-72
2022/03/17 07:38:10;;;;;;;44.03;39.30;;;;;;;;;;6183218;28;20238;-71
2022/03/17 07:41:31;;;;;;;47.57;42.67;;;;;;;;;;6175654;28;20259;-70
2022/03/17 07:44:54;;;;;;;47.10;42.00;;;;;;;;;;6184400;28;20234;-72
2022/03/17 07:48:41;;;;;;;43.33;38.73;;;;;;;;;;6156078;28;20795;-72
2022/03/17 07:52:10;;;;;;;46.23;41.30;;;;;;;;;;6153786;28;20630;-72
2022/03/17 07:55:31;;;;;;;47.47;42.47;;;;;;;;;;6185374;28;20234;-70
2022/03/17 07:58:52;;;;;;;47.47;42.50;;;;;;;;;;6173214;28;20324;-68
2022/03/17 08:02:16;;;;;;;48.13;43.17;;;;;;;;;;6171281;28;20321;-69
2022/03/17 08:05:37;;;;;;;46.70;41.90;;;;;;;;;;6181120;28;20218;-69
2022/03/17 08:08:58;;;;;;;44.63;40.00;;;;;;;;;;6180997;28;20229;-73
2022/03/17 08:12:18;;;;;;;45.27;40.63;;;;;;;;;;6169188;28;20659;-73
2022/03/17 08:15:40;;;;;;;48.17;43.03;;;;;;;;;;6182007;28;20234;-73
2022/03/17 08:19:02;;;;;;;46.77;42.03;;;;;;;;;;6184437;28;20218;-72
2022/03/17 08:22:24;;;;;;;48.93;44.00;;;;;;;;;;6185484;28;20646;-71
2022/03/17 08:25:45;;;;;;;47.03;42.20;;;;;;;;;;6181067;28;20249;-70
2022/03/17 08:29:09;;;;;;;44.73;40.17;;;;;;;;;;6151406;28;20222;-71
2022/03/17 08:32:33;;;;;;;46.20;41.37;;;;;;;;;;6181108;28;20230;-71
2022/03/17 08:35:56;;;;;;;47.17;42.13;;;;;;;;;;6181467;28;20237;-72
2022/03/17 08:39:17;;;;;;;46.00;41.17;;;;;;;;;;6174785;28;20230;-74
2022/03/17 08:42:38;;;;;;;46.40;41.50;;;;;;;;;;6180194;28;20678;-79
2022/03/17 08:49:38;;;;;;;47.30;42.20;;;;;;;;;;6173648;28;20226;-78
2022/03/17 08:53:01;;;;;;;46.50;41.67;;;;;;;;;;6181102;28;20217;-76
2022/03/17 08:56:23;;;;;;;44.43;39.70;;;;;;;;;;6173950;28;20233;-78
2022/03/17 08:59:43;;;;;;;47.63;43.00;;;;;;;;;;6183833;28;20661;-77
2022/03/17 09:03:05;;;;;;;45.53;40.97;;;;;;;;;;6175944;28;20229;-81
2022/03/17 09:06:25;;;;;;;45.13;40.23;;;;;;;;;;6177798;28;20233;-74
2022/03/17 09:09:48;;;;;;;46.13;41.30;;;;;;;;;;6160452;28;20234;-73
2022/03/17 09:13:09;;;;;;;45.77;41.37;;;;;;;;;;6171495;28;20229;-73
2022/03/17 09:16:30;;;;;;;45.93;41.10;;;;;;;;;;6167534;28;20241;-76
2022/03/17 09:19:51;;;;;;;48.70;43.50;;;;;;;;;;6181588;28;20607;-76
2022/03/17 09:23:12;;;;;;;43.90;39.60;;;;;;;;;;6155930;28;20302;-75
2022/03/17 09:26:34;;;;;;;42.00;37.77;;;;;;;;;;6169833;28;20234;-76
2022/03/17 09:29:55;;;;;;;44.57;39.90;;;;;;;;;;6176697;28;20885;-74
2022/03/17 09:33:15;;;;;;;43.50;38.93;;;;;;;;;;6178464;28;20230;-75
2022/03/17 09:36:36;;;;;;;47.70;42.97;;;;;;;;;;6176932;28;20643;-73
2022/03/17 09:39:57;;;;;;;44.33;39.73;;;;;;;;;;6182020;28;20639;-76
2022/03/17 09:43:19;;;;;;;47.10;41.97;;;;;;;;;;6166891;28;20250;-80
2022/03/17 09:46:42;;;;;;;40.60;36.70;;;;;;;;;;6171957;28;20233;-75
2022/03/17 09:50:05;;;;;;;40.30;36.33;;;;;;;;;;6180777;28;20233;-76
2022/03/17 09:53:27;;;;;;;41.63;37.23;;;;;;;;;;6178330;28;20241;-76
2022/03/17 09:56:48;;;;;;;39.67;35.63;;;;;;;;;;6180218;28;20687;-79
2022/03/17 10:00:12;;;;;;;46.73;42.13;;;;;;;;;;6179136;28;20512;-76
2022/03/17 10:03:34;;;;;;;44.23;39.83;;;;;;;;;;6174325;28;20234;-73
2022/03/17 10:06:55;;;;;;;45.80;41.27;;;;;;;;;;6169496;28;20238;-75
2022/03/17 10:10:16;;;;;;;47.07;42.43;;;;;;;;;;6177970;28;20317;-73
2022/03/17 10:13:44;;;;;;;47.63;42.80;;;;;;;;;;6174781;28;20305;-77
2022/03/17 10:17:10;;;;;;;47.33;42.13;;;;;;;;;;6181855;28;20233;-78
2022/03/17 10:20:34;;;;;;;47.20;42.53;;;;;;;;;;6180174;28;22358;-74
2022/03/17 10:23:59;;;;;;;44.57;40.20;;;;;;;;;;6175197;28;21091;-79
2022/03/17 10:27:38;;;;;;;46.33;41.93;;;;;;;;;;6177889;28;20226;-77
2022/03/17 10:31:03;;;;;;;46.27;41.40;;;;;;;;;;6163258;28;20229;-77
2022/03/17 10:34:28;;;;;;;49.90;44.93;;;;;;;;;;6187144;28;20229;-77
2022/03/17 10:37:50;;;;;;;47.80;42.67;;;;;;;;;;6178420;28;20611;-72
2022/03/17 10:41:12;;;;;;;45.47;40.77;;;;;;;;;;6174751;28;20229;-72
2022/03/17 10:44:34;;;;;;;47.17;42.60;;;;;;;;;;6175824;28;20226;-72
2022/03/17 10:48:06;;;;;;;47.27;42.63;;;;;;;;;;6172416;28;20242;-75
2022/03/17 10:51:38;;;;;;;45.67;40.90;;;;;;;;;;6182340;28;20250;-75
2022/03/17 10:55:01;;;;;;;43.37;39.20;;;;;;;;;;6184643;28;20230;-76
2022/03/17 10:58:22;;;;;;;47.20;42.70;;;;;;;;;;6180212;28;20241;-78
2022/03/17 11:01:45;;;;;;;46.33;41.77;;;;;;;;;;6158193;28;20234;-75
2022/03/17 11:05:10;;;;;;;43.40;39.00;;;;;;;;;;6175750;28;20230;-74
2022/03/17 11:08:34;;;;;;;44.67;40.17;;;;;;;;;;6165244;28;20241;-76
2022/03/17 11:11:56;;;;;;;43.40;38.87;;;;;;;;;;6179547;28;20227;-78
2022/03/17 11:15:26;;;;;;;37.20;33.43;;;;;;;;;;6176733;28;20241;-76
2022/03/17 11:18:47;;;;;;;36.20;32.73;;;;;;;;;;6183498;28;20233;-77
2022/03/17 11:22:10;;;;;;;28.53;25.43;;;;;;;;;;6169332;28;20234;-72
2022/03/17 11:25:34;;;;;;;27.67;24.97;;;;;;;;;;6180322;28;21186;-75
2022/03/17 11:28:58;;;;;;;24.47;21.90;;;;;;;;;;6170075;28;20294;-74
2022/03/17 11:32:29;;;;;;;23.40;20.90;;;;;;;;;;6170255;28;20321;-75
2022/03/17 11:35:54;;;;;;;17.77;15.97;;;;;;;;;;6171281;28;20233;-74
2022/03/17 11:39:18;;;;;;;19.17;14.73;;;;;;;;;;6177133;28;20225;-74
2022/03/17 11:42:42;;;;;;;19.77;16.00;;;;;;;;;;6173624;28;20234;-74
2022/03/17 11:46:10;;;;;;;14.00;12.50;;;;;;;;;;6178612;28;20510;-80
2022/03/17 11:49:32;;;;;;;15.57;12.40;;;;;;;;;;6187018;28;20229;-74
2022/03/17 11:52:57;;;;;;;12.23;10.30;;;;;;;;;;6184867;28;20236;-74
2022/03/17 11:56:29;;;;;;;16.57;10.30;;;;;;;;;;6182817;28;20222;-76
2022/03/17 11:59:52;;;;;;;12.87;10.13;;;;;;;;;;6167750;28;20234;-76
2022/03/17 12:03:13;;;;;;;10.40;9.23;;;;;;;;;;6176923;28;20233;-76
2022/03/17 12:06:35;;;;;;;12.57;8.37;;;;;;;;;;6174926;28;20238;-73
2022/03/17 12:09:56;;;;;;;10.60;6.53;;;;;;;;;;6181788;28;20225;-75
2022/03/17 12:13:24;;;;;;;12.67;7.43;;;;;;;;;;6178241;28;20316;-79
2022/03/17 12:16:47;;;;;;;7.73;5.23;;;;;;;;;;6180226;28;20221;-75
2022/03/17 12:20:10;;;;;;;5.90;4.87;;;;;;;;;;6182590;28;20533;-77
2022/03/17 12:23:46;;;;;;;8.73;4.93;;;;;;;;;;6180386;28;20222;-75
2022/03/17 12:27:10;;;;;;;7.73;5.00;;;;;;;;;;6179982;28;20225;-74
2022/03/17 12:30:33;;;;;;;12.30;5.17;;;;;;;;;;6180964;28;21082;-73
2022/03/17 12:33:55;;;;;;;8.40;3.53;;;;;;;;;;6179240;28;20230;-73
2022/03/17 12:37:17;;;;;;;9.07;3.30;;;;;;;;;;6181616;28;20234;-74
2022/03/17 12:40:43;;;;;;;7.37;3.33;;;;;;;;;;6172097;28;20328;-72
2022/03/17 12:44:05;;;;;;;5.97;2.47;;;;;;;;;;6793054;22;21150;-73
2022/03/17 12:47:27;;;;;;;7.97;2.87;;;;;;;;;;6152451;28;20250;-74
2022/03/17 12:50:49;;;;;;;5.67;1.93;;;;;;;;;;6163314;28;20231;-75
2022/03/17 12:54:18;;;;;;;5.67;2.03;;;;;;;;;;6146022;28;20242;-74
2022/03/17 12:57:40;;;;;;;5.03;2.00;;;;;;;;;;6153553;28;20842;-73
2022/03/17 13:01:01;;;;;;;6.70;2.67;;;;;;;;;;6154749;28;20219;-76
2022/03/17 13:04:22;;;;;;;5.83;2.10;;;;;;;;;;6148741;28;20883;-73
2022/03/17 13:07:46;;;;;;;7.27;2.57;;;;;;;;;;6140823;28;20230;-75
2022/03/17 13:14:52;;;;;;;6.20;2.70;;;;;;;;;;6168648;28;20336;-73
2022/03/17 13:18:16;;;;;;;9.37;3.03;;;;;;;;;;6181626;28;20226;-72
2022/03/17 13:21:37;;;;;;;5.30;2.07;;;;;;;;;;6179955;28;20744;-71
2022/03/17 13:25:06;;;;;;;8.57;2.67;;;;;;;;;;6174003;28;20241;-74
2022/03/17 13:28:27;;;;;;;8.07;3.40;;;;;;;;;;6174432;28;20596;-75
2022/03/17 13:31:48;;;;;;;10.70;2.67;;;;;;;;;;6174797;28;20226;-72
2022/03/17 13:35:10;;;;;;;6.17;2.27;;;;;;;;;;6179641;28;20651;-74
2022/03/17 13:38:33;;;;;;;6.17;2.80;;;;;;;;;;6177069;28;20291;-71
2022/03/17 13:42:06;;;;;;;7.47;2.80;;;;;;;;;;6154173;28;20293;-69
2022/03/17 13:45:31;;;;;;;9.47;2.93;;;;;;;;;;6156927;28;20546;-75
2022/03/17 13:48:52;;;;;;;8.40;3.23;;;;;;;;;;6178038;28;20320;-75
2022/03/17 13:52:13;;;;;;;10.47;3.40;;;;;;;;;;6163813;28;20501;-70
2022/03/17 13:55:42;;;;;;;11.20;3.43;;;;;;;;;;6178384;28;20234;-77
2022/03/17 13:59:05;;;;;;;8.13;3.17;;;;;;;;;;6187594;28;20320;-75
2022/03/17 14:02:27;;;;;;;7.37;2.60;;;;;;;;;;6165659;28;20514;-74
2022/03/17 14:06:08;;;;;;;16.80;4.33;;;;;;;;;;6175140;28;20238;-75
2022/03/17 14:09:30;;;;;;;8.93;2.57;;;;;;;;;;6175377;28;20698;-74
2022/03/17 14:12:50;;;;;;;11.00;3.23;;;;;;;;;;6162861;28;20226;-75
2022/03/17 14:16:13;;;;;;;10.30;3.43;;;;;;;;;;6160668;28;20241;-76
2022/03/17 14:19:36;;;;;;;7.93;2.50;;;;;;;;;;6177301;28;20600;-80
2022/03/17 14:26:37;;;;;;;10.63;2.73;;;;;;;;;;6178611;28;20242;-77
2022/03/17 14:29:58;;;;;;;7.93;2.63;;;;;;;;;;6175049;28;20234;-74
2022/03/17 14:33:20;;;;;;;6.47;4.03;;;;;;;;;;6173950;28;20234;-76
2022/03/17 14:36:44;;;;;;;8.60;3.00;;;;;;;;;;6170265;28;20230;-75
2022/03/17 14:40:06;;;;;;;10.80;3.27;;;;;;;;;;6180586;28;20260;-72
2022/03/17 14:43:27;;;;;;;14.17;3.93;;;;;;;;;;6176272;28;20257;-73
2022/03/17 14:46:48;;;;;;;8.97;2.97;;;;;;;;;;6165849;28;20939;-75
2022/03/17 14:50:11;;;;;;;12.83;2.83;;;;;;;;;;6182264;28;20503;-73
2022/03/17 14:53:32;;;;;;;6.70;2.67;;;;;;;;;;6179771;28;20324;-71
2022/03/17 14:56:53;;;;;;;7.77;4.53;;;;;;;;;;6182192;28;20316;-72
2022/03/17 15:00:16;;;;;;;8.17;3.60;;;;;;;;;;6173066;28;20225;-71
2022/03/17 15:03:38;;;;;;;11.73;4.03;;;;;;;;;;6168933;28;20261;-74
2022/03/17 15:07:01;;;;;;;6.60;2.40;;;;;;;;;;6172251;28;20305;-70
2022/03/17 15:10:22;;;;;;;6.73;3.27;;;;;;;;;;6167411;28;20786;-75
2022/03/17 15:13:43;;;;;;;10.37;3.03;;;;;;;;;;6178440;28;20250;-75
2022/03/17 15:17:04;;;;;;;9.07;3.47;;;;;;;;;;6183595;28;20222;-75
2022/03/17 15:20:25;;;;;;;7.83;2.33;;;;;;;;;;6175766;28;20506;-76
2022/03/17 15:23:47;;;;;;;7.43;2.40;;;;;;;;;;6183931;28;20229;-73
2022/03/17 15:30:48;;;;;;;8.57;3.70;;;;;;;;;;6181605;28;20706;-75
2022/03/17 15:34:09;;;;;;;10.43;2.93;;;;;;;;;;6180377;28;20241;-75
2022/03/17 15:37:30;;;;;;;9.70;4.20;;;;;;;;;;6184580;28;20229;-76
2022/03/17 15:40:53;;;;;;;4.53;2.43;;;;;;;;;;6186481;28;20597;-75
2022/03/17 15:44:13;;;;;;;11.50;3.77;;;;;;;;;;6183912;28;20330;-75
2022/03/17 15:47:35;;;;;;;9.87;3.57;;;;;;;;;;6183880;28;20237;-74
2022/03/17 15:50:57;;;;;;;8.33;3.97;;;;;;;;;;6187827;28;20233;-77
2022/03/17 15:54:17;;;;;;;12.90;5.00;;;;;;;;;;6181077;28;20231;-75
2022/03/17 15:57:39;;;;;;;10.70;4.70;;;;;;;;;;6163593;28;20229;-76
2022/03/17 16:01:01;;;;;;;11.83;3.23;;;;;;;;;;6185525;28;20233;-75
2022/03/17 16:04:21;;;;;;;10.97;3.70;;;;;;;;;;6181535;28;20233;-76
2022/03/17 16:07:42;;;;;;;14.50;4.93;;;;;;;;;;6186570;28;20234;-77
2022/03/17 16:14:43;;;;;;;12.40;4.57;;;;;;;;;;6180355;28;20241;-72
2022/03/17 16:18:04;;;;;;;15.43;4.53;;;;;;;;;;6176130;28;20616;-72
2022/03/17 16:21:27;;;;;;;6.70;3.10;;;;;;;;;;6166195;28;20222;-74
2022/03/17 16:24:47;;;;;;;10.27;3.90;;;;;;;;;;6169181;28;20222;-75
2022/03/17 16:28:08;;;;;;;10.60;3.70;;;;;;;;;;6179438;28;20568;-75
2022/03/17 16:31:30;;;;;;;8.57;4.00;;;;;;;;;;6173516;28;20607;-76
2022/03/17 16:34:51;;;;;;;7.40;2.40;;;;;;;;;;6181935;28;20230;-76
2022/03/17 16:38:12;;;;;;;11.83;4.20;;;;;;;;;;6186369;28;20230;-76
2022/03/17 16:41:34;;;;;;;10.47;4.10;;;;;;;;;;6179877;28;20619;-76
2022/03/17 16:44:56;;;;;;;9.77;3.57;;;;;;;;;;6186870;28;20229;-74
2022/03/17 16:48:18;;;;;;;6.13;3.07;;;;;;;;;;6182057;28;20246;-76
2022/03/17 16:51:39;;;;;;;7.50;4.53;;;;;;;;;;6185448;28;20237;-76
2022/03/17 16:55:01;;;;;;;9.10;3.33;;;;;;;;;;6168180;28;20257;-75
2022/03/17 16:58:22;;;;;;;13.10;2.63;;;;;;;;;;6181047;28;20348;-75
2022/03/17 17:01:43;;;;;;;8.90;3.47;;;;;;;;;;6178781;28;20618;-75
2022/03/17 17:05:06;;;;;;;11.30;3.27;;;;;;;;;;6188661;28;20237;-75
2022/03/17 17:08:27;;;;;;;11.70;2.97;;;;;;;;;;6186601;28;20497;-75
2022/03/17 17:11:47;;;;;;;10.90;3.83;;;;;;;;;;6182270;28;20233;-75
2022/03/17 17:15:10;;;;;;;7.23;2.43;;;;;;;;;;6179388;28;20528;-75
2022/03/17 17:18:31;;;;;;;11.20;4.10;;;;;;;;;;6173062;28;20233;-75
2022/03/17 17:21:54;;;;;;;10.90;3.20;;;;;;;;;;6177871;28;20308;-75
2022/03/17 17:32:33;;;;;;;7.40;2.90;;;;;;;;;;6179044;28;20221;-77
2022/03/17 17:35:55;;;;;;;13.50;4.83;;;;;;;;;;6189082;28;20750;-76
2022/03/17 17:39:17;;;;;;;10.63;4.40;;;;;;;;;;6170452;28;20233;-74
2022/03/17 17:42:40;;;;;;;12.17;3.87;;;;;;;;;;6178832;28;20724;-75
2022/03/17 17:46:01;;;;;;;10.97;4.07;;;;;;;;;;6178476;28;20229;-75
2022/03/17 17:49:22;;;;;;;10.00;3.80;;;;;;;;;;6182092;28;20763;-75
2022/03/17 17:52:44;;;;;;;7.80;3.47;;;;;;;;;;6183042;28;20229;-74
2022/03/17 17:56:07;;;;;;;11.30;3.10;;;;;;;;;;6182645;28;20251;-74
2022/03/17 17:59:28;;;;;;;13.67;3.83;;;;;;;;;;6188838;28;20241;-75
2022/03/17 18:02:49;;;;;;;15.93;5.57;;;;;;;;;;6185876;28;22046;-74
2022/03/17 18:06:10;;;;;;;10.37;4.73;;;;;;;;;;6176153;28;20241;-75
2022/03/17 18:09:32;;;;;;;13.80;5.37;;;;;;;;;;6168467;28;20234;-74
2022/03/17 18:12:54;;;;;;;13.07;3.13;;;;;;;;;;6166405;28;20234;-74
2022/03/17 18:16:16;;;;;;;10.90;4.27;;;;;;;;;;6168213;28;20506;-73
2022/03/17 18:19:36;;;;;;;11.20;4.67;;;;;;;;;;6162512;28;20674;-73
2022/03/17 18:22:58;;;;;;;14.77;4.47;;;;;;;;;;6171268;28;20230;-74
2022/03/17 18:26:20;;;;;;;12.00;5.60;;;;;;;;;;6180323;28;20231;-74
2022/03/17 18:29:42;;;;;;;12.10;5.43;;;;;;;;;;6165845;28;20242;-73
2022/03/17 18:33:03;;;;;;;17.07;9.53;;;;;;;;;;6178635;28;20236;-74
2022/03/17 18:36:25;;;;;;;17.20;5.87;;;;;;;;;;6170735;28;20233;-73
2022/03/17 18:39:46;;;;;;;13.77;4.43;;;;;;;;;;6176829;28;20321;-76
2022/03/17 18:43:07;;;;;;;14.90;5.27;;;;;;;;;;6162981;28;20237;-73
2022/03/17 18:46:30;;;;;;;13.00;5.27;;;;;;;;;;6157696;28;20244;-77
2022/03/17 18:49:52;;;;;;;14.20;5.77;;;;;;;;;;6180492;28;20229;-72
2022/03/17 18:53:15;;;;;;;15.37;6.40;;;;;;;;;;6174847;28;20592;-83
2022/03/17 18:56:36;;;;;;;14.53;5.57;;;;;;;;;;6173930;28;20314;-76
2022/03/17 18:59:58;;;;;;;19.40;5.70;;;;;;;;;;6168255;28;20691;-77
2022/03/17 19:03:21;;;;;;;18.80;5.83;;;;;;;;;;6166599;28;20540;-74
2022/03/17 19:06:43;;;;;;;16.13;5.47;;;;;;;;;;6162273;28;20238;-75
2022/03/17 19:10:05;;;;;;;17.53;5.60;;;;;;;;;;6162395;28;20239;-76
2022/03/17 19:13:28;;;;;;;21.30;8.80;;;;;;;;;;6155330;28;22777;-76
2022/03/17 19:16:50;;;;;;;22.83;6.83;;;;;;;;;;6159805;28;20236;-77
2022/03/17 19:20:14;;;;;;;23.67;9.00;;;;;;;;;;6168157;28;20245;-78
2022/03/17 19:23:35;;;;;;;18.80;6.60;;;;;;;;;;6164669;28;20272;-77
2022/03/17 19:26:57;;;;;;;19.07;5.50;;;;;;;;;;6170657;28;20802;-78
2022/03/17 19:30:18;;;;;;;12.10;6.43;;;;;;;;;;6163251;28;20235;-80
2022/03/17 19:33:39;;;;;;;11.70;5.53;;;;;;;;;;6165876;28;20504;-79
2022/03/17 19:37:02;;;;;;;16.73;6.07;;;;;;;;;;6158837;28;20234;-73
2022/03/17 19:40:23;;;;;;;16.23;5.80;;;;;;;;;;6175211;28;20237;-76
2022/03/17 19:43:47;;;;;;;14.00;5.43;;;;;;;;;;6170411;28;20255;-75
2022/03/17 19:47:09;;;;;;;20.23;6.90;;;;;;;;;;6176210;28;20580;-73
2022/03/17 19:54:11;;;;;;;17.93;6.63;;;;;;;;;;6168221;28;20225;-72
2022/03/17 19:57:32;;;;;;;25.73;6.13;;;;;;;;;;6169123;28;20547;-71
2022/03/17 20:00:54;;;;;;;19.33;5.53;;;;;;;;;;6174467;28;20229;-74
2022/03/17 20:04:15;;;;;;;14.77;6.37;;;;;;;;;;6168431;28;20848;-74
2022/03/17 20:07:36;;;;;;;15.17;6.10;;;;;;;;;;6166361;28;20227;-73
2022/03/17 20:14:37;;;;;;;14.37;5.30;;;;;;;;;;6158214;28;20229;-74
2022/03/17 20:17:59;;;;;;;18.90;7.03;;;;;;;;;;6166542;28;20476;-71
2022/03/17 20:21:21;;;;;;;18.33;6.70;;;;;;;;;;6170832;28;20664;-73
2022/03/17 20:24:42;;;;;;;13.73;5.57;;;;;;;;;;6170409;28;20250;-73
2022/03/17 20:28:04;;;;;;;16.73;5.37;;;;;;;;;;6173044;28;20288;-74
2022/03/17 20:31:25;;;;;;;17.47;5.57;;;;;;;;;;6149947;28;20400;-75